Terminal Aerodrome Forecast
Issued by NWS

Home | Current Version | Previous Version | Text Only | Print | Product List | Glossary On
Versions: 1 2 3 4 5 6 7 8 9 10 11 12 13 14 15
000
FTUS43 KDLH 282100 AAB
TAFHIB
TAF AMD
KHIB 282111Z 2821/0118 21014G20KT P6SM SCT200
     FM010200 21012KT P6SM VCSH SCT035 BKN060
     FM010500 22008KT P6SM -SN SCT018 BKN030
     FM011200 25007KT P6SM SCT030
     FM011600 27010KT P6SM SCT040=

USA.gov is the U.S. government's official web portal to all federal, state and local government web resources and services.